sensor_id;sensor_type;location;lat;lon;timestamp;temperature;humidity
21459;DHT22;10891;49.350;19.386;2023-05-07T00:01:50;10.70;99.90
21459;DHT22;10891;49.350;19.386;2023-05-07T00:04:17;10.80;99.90
21459;DHT22;10891;49.350;19.386;2023-05-07T00:06:44;10.80;99.90
21459;DHT22;10891;49.350;19.386;2023-05-07T00:09:11;10.80;99.90
21459;DHT22;10891;49.350;19.386;2023-05-07T00:11:39;10.80;99.90
21459;DHT22;10891;49.350;19.386;2023-05-07T00:14:06;10.80;99.90
21459;DHT22;10891;49.350;19.386;2023-05-07T00:16:33;10.70;99.90
21459;DHT22;10891;49.350;19.386;2023-05-07T00:19:00;10.70;99.90
21459;DHT22;10891;49.350;19.386;2023-05-07T00:21:27;10.70;99.90
21459;DHT22;10891;49.350;19.386;2023-05-07T00:23:54;10.60;99.90
21459;DHT22;10891;49.350;19.386;2023-05-07T00:26:22;10.60;99.90
21459;DHT22;10891;49.350;19.386;2023-05-07T00:28:50;10.50;99.90
21459;DHT22;10891;49.350;19.386;2023-05-07T00:31:17;10.50;99.90
21459;DHT22;10891;49.350;19.386;2023-05-07T00:33:44;10.50;99.90
21459;DHT22;10891;49.350;19.386;2023-05-07T00:36:11;10.50;99.90
21459;DHT22;10891;49.350;19.386;2023-05-07T00:38:38;10.40;99.90
21459;DHT22;10891;49.350;19.386;2023-05-07T00:41:05;10.30;99.90
21459;DHT22;10891;49.350;19.386;2023-05-07T00:43:32;10.30;99.90
21459;DHT22;10891;49.350;19.386;2023-05-07T00:46:00;10.20;99.90
21459;DHT22;10891;49.350;19.386;2023-05-07T00:48:27;10.20;99.90
21459;DHT22;10891;49.350;19.386;2023-05-07T00:50:54;10.20;99.90
21459;DHT22;10891;49.350;19.386;2023-05-07T00:53:21;10.30;99.90
21459;DHT22;10891;49.350;19.386;2023-05-07T00:55:48;10.40;99.90
21459;DHT22;10891;49.350;19.386;2023-05-07T00:58:16;10.40;99.90
21459;DHT22;10891;49.350;19.386;2023-05-07T01:00:42;10.50;99.90
21459;DHT22;10891;49.350;19.386;2023-05-07T01:03:11;10.60;99.90
21459;DHT22;10891;49.350;19.386;2023-05-07T01:05:38;10.60;99.90
21459;DHT22;10891;49.350;19.386;2023-05-07T01:08:05;10.60;99.90
21459;DHT22;10891;49.350;19.386;2023-05-07T01:10:32;10.60;99.90
21459;DHT22;10891;49.350;19.386;2023-05-07T01:12:59;10.60;99.90
21459;DHT22;10891;49.350;19.386;2023-05-07T01:15:27;10.60;99.90
21459;DHT22;10891;49.350;19.386;2023-05-07T01:17:54;10.60;99.90
21459;DHT22;10891;49.350;19.386;2023-05-07T01:20:24;10.60;99.90
21459;DHT22;10891;49.350;19.386;2023-05-07T01:22:53;10.40;99.90
21459;DHT22;10891;49.350;19.386;2023-05-07T01:25:21;10.40;99.90
21459;DHT22;10891;49.350;19.386;2023-05-07T01:27:48;10.30;99.90
21459;DHT22;10891;49.350;19.386;2023-05-07T01:30:16;10.30;99.90
21459;DHT22;10891;49.350;19.386;2023-05-07T01:32:45;10.40;99.90
21459;DHT22;10891;49.350;19.386;2023-05-07T01:35:18;10.50;99.90
21459;DHT22;10891;49.350;19.386;2023-05-07T01:37:45;10.60;99.90
21459;DHT22;10891;49.350;19.386;2023-05-07T01:40:14;10.50;99.90
21459;DHT22;10891;49.350;19.386;2023-05-07T01:42:43;10.50;99.90
21459;DHT22;10891;49.350;19.386;2023-05-07T01:45:10;10.40;99.90
21459;DHT22;10891;49.350;19.386;2023-05-07T01:47:37;10.30;99.90
21459;DHT22;10891;49.350;19.386;2023-05-07T01:50:06;10.30;99.90
21459;DHT22;10891;49.350;19.386;2023-05-07T01:52:36;10.20;99.90
21459;DHT22;10891;49.350;19.386;2023-05-07T01:55:06;10.10;99.90
21459;DHT22;10891;49.350;19.386;2023-05-07T01:57:35;10.10;99.90
21459;DHT22;10891;49.350;19.386;2023-05-07T02:00:02;10.10;99.90
21459;DHT22;10891;49.350;19.386;2023-05-07T02:02:31;10.10;99.90
21459;DHT22;10891;49.350;19.386;2023-05-07T02:04:59;10.10;99.90
21459;DHT22;10891;49.350;19.386;2023-05-07T02:07:26;10.10;99.90
21459;DHT22;10891;49.350;19.386;2023-05-07T02:09:52;10.10;99.90
21459;DHT22;10891;49.350;19.386;2023-05-07T02:12:20;10.00;99.90
21459;DHT22;10891;49.350;19.386;2023-05-07T02:14:49;9.90;99.90
21459;DHT22;10891;49.350;19.386;2023-05-07T02:17:16;10.00;99.90
21459;DHT22;10891;49.350;19.386;2023-05-07T02:19:42;10.00;99.90
21459;DHT22;10891;49.350;19.386;2023-05-07T02:22:10;10.10;99.90
21459;DHT22;10891;49.350;19.386;2023-05-07T02:24:36;10.10;99.90
21459;DHT22;10891;49.350;19.386;2023-05-07T02:27:03;10.10;99.90
21459;DHT22;10891;49.350;19.386;2023-05-07T02:29:30;10.10;99.90
21459;DHT22;10891;49.350;19.386;2023-05-07T02:31:59;10.10;99.90
21459;DHT22;10891;49.350;19.386;2023-05-07T02:34:26;10.00;99.90
21459;DHT22;10891;49.350;19.386;2023-05-07T02:36:53;10.00;99.90
21459;DHT22;10891;49.350;19.386;2023-05-07T02:39:21;9.90;99.90
21459;DHT22;10891;49.350;19.386;2023-05-07T02:41:48;9.90;99.90
21459;DHT22;10891;49.350;19.386;2023-05-07T02:44:14;9.80;99.90
21459;DHT22;10891;49.350;19.386;2023-05-07T02:46:41;9.80;99.90
21459;DHT22;10891;49.350;19.386;2023-05-07T02:49:10;9.90;99.90
21459;DHT22;10891;49.350;19.386;2023-05-07T02:51:36;10.00;99.90
21459;DHT22;10891;49.350;19.386;2023-05-07T02:54:04;10.00;99.90
21459;DHT22;10891;49.350;19.386;2023-05-07T02:56:31;10.10;99.90
21459;DHT22;10891;49.350;19.386;2023-05-07T02:58:57;10.00;99.90
21459;DHT22;10891;49.350;19.386;2023-05-07T03:01:24;10.00;99.90
21459;DHT22;10891;49.350;19.386;2023-05-07T03:03:51;10.10;99.90
21459;DHT22;10891;49.350;19.386;2023-05-07T03:06:19;10.20;99.90
21459;DHT22;10891;49.350;19.386;2023-05-07T03:08:46;10.20;99.90
21459;DHT22;10891;49.350;19.386;2023-05-07T03:11:13;10.20;99.90
21459;DHT22;10891;49.350;19.386;2023-05-07T03:13:40;10.20;99.90
21459;DHT22;10891;49.350;19.386;2023-05-07T03:16:07;10.10;99.90
21459;DHT22;10891;49.350;19.386;2023-05-07T03:18:34;10.20;99.90
21459;DHT22;10891;49.350;19.386;2023-05-07T03:21:01;10.10;99.90
21459;DHT22;10891;49.350;19.386;2023-05-07T03:23:29;10.10;99.90
21459;DHT22;10891;49.350;19.386;2023-05-07T03:25:56;10.00;99.90
21459;DHT22;10891;49.350;19.386;2023-05-07T03:28:23;9.90;99.90
21459;DHT22;10891;49.350;19.386;2023-05-07T03:30:49;9.70;99.90
21459;DHT22;10891;49.350;19.386;2023-05-07T03:33:17;9.50;99.90
21459;DHT22;10891;49.350;19.386;2023-05-07T03:35:44;9.50;99.90
21459;DHT22;10891;49.350;19.386;2023-05-07T03:38:11;9.40;99.90
21459;DHT22;10891;49.350;19.386;2023-05-07T03:40:39;9.30;99.90
21459;DHT22;10891;49.350;19.386;2023-05-07T03:43:06;9.40;99.90
21459;DHT22;10891;49.350;19.386;2023-05-07T03:45:33;9.40;99.90
21459;DHT22;10891;49.350;19.386;2023-05-07T03:48:00;9.40;99.90
21459;DHT22;10891;49.350;19.386;2023-05-07T03:50:27;9.50;99.90
21459;DHT22;10891;49.350;19.386;2023-05-07T03:52:54;9.50;99.90
21459;DHT22;10891;49.350;19.386;2023-05-07T03:55:21;9.70;99.90
21459;DHT22;10891;49.350;19.386;2023-05-07T03:57:49;9.90;99.90
21459;DHT22;10891;49.350;19.386;2023-05-07T04:00:16;10.40;99.90
21459;DHT22;10891;49.350;19.386;2023-05-07T04:02:43;11.50;99.90
21459;DHT22;10891;49.350;19.386;2023-05-07T04:05:10;12.40;99.90
21459;DHT22;10891;49.350;19.386;2023-05-07T04:07:37;13.60;99.90
21459;DHT22;10891;49.350;19.386;2023-05-07T04:10:05;14.90;99.90
21459;DHT22;10891;49.350;19.386;2023-05-07T04:12:32;16.00;99.90
21459;DHT22;10891;49.350;19.386;2023-05-07T04:15:00;16.50;99.90
21459;DHT22;10891;49.350;19.386;2023-05-07T04:17:27;15.20;99.90
21459;DHT22;10891;49.350;19.386;2023-05-07T04:19:54;14.10;99.90
21459;DHT22;10891;49.350;19.386;2023-05-07T04:22:21;13.30;99.90
21459;DHT22;10891;49.350;19.386;2023-05-07T04:24:48;12.60;99.90
21459;DHT22;10891;49.350;19.386;2023-05-07T04:27:15;12.20;99.90
21459;DHT22;10891;49.350;19.386;2023-05-07T04:29:42;11.80;99.90
21459;DHT22;10891;49.350;19.386;2023-05-07T04:32:13;11.60;99.90
21459;DHT22;10891;49.350;19.386;2023-05-07T04:34:40;11.50;99.90
21459;DHT22;10891;49.350;19.386;2023-05-07T04:37:08;11.20;99.90
21459;DHT22;10891;49.350;19.386;2023-05-07T04:39:36;11.30;99.90
21459;DHT22;10891;49.350;19.386;2023-05-07T04:42:17;11.30;99.90
21459;DHT22;10891;49.350;19.386;2023-05-07T04:44:46;11.40;99.90
21459;DHT22;10891;49.350;19.386;2023-05-07T04:47:14;11.50;99.90
21459;DHT22;10891;49.350;19.386;2023-05-07T04:49:42;11.50;99.90
21459;DHT22;10891;49.350;19.386;2023-05-07T04:52:11;11.60;99.90
21459;DHT22;10891;49.350;19.386;2023-05-07T04:54:39;11.60;99.90
21459;DHT22;10891;49.350;19.386;2023-05-07T04:57:07;11.60;99.90
21459;DHT22;10891;49.350;19.386;2023-05-07T04:59:34;11.70;99.90
21459;DHT22;10891;49.350;19.386;2023-05-07T05:02:01;11.70;99.90
21459;DHT22;10891;49.350;19.386;2023-05-07T05:04:34;11.90;99.90
21459;DHT22;10891;49.350;19.386;2023-05-07T05:07:05;11.90;99.90
21459;DHT22;10891;49.350;19.386;2023-05-07T05:09:37;11.90;99.90
21459;DHT22;10891;49.350;19.386;2023-05-07T05:12:07;12.10;99.90
21459;DHT22;10891;49.350;19.386;2023-05-07T05:14:38;12.20;99.90
21459;DHT22;10891;49.350;19.386;2023-05-07T05:17:10;12.00;99.90
21459;DHT22;10891;49.350;19.386;2023-05-07T05:19:44;12.00;99.90
21459;DHT22;10891;49.350;19.386;2023-05-07T05:22:16;12.20;99.90
21459;DHT22;10891;49.350;19.386;2023-05-07T05:24:45;12.60;99.90
21459;DHT22;10891;49.350;19.386;2023-05-07T05:27:13;13.00;99.90
21459;DHT22;10891;49.350;19.386;2023-05-07T05:29:41;13.40;99.90
21459;DHT22;10891;49.350;19.386;2023-05-07T05:32:08;13.50;99.90
21459;DHT22;10891;49.350;19.386;2023-05-07T05:34:36;13.40;99.90
21459;DHT22;10891;49.350;19.386;2023-05-07T05:37:07;13.50;99.90
21459;DHT22;10891;49.350;19.386;2023-05-07T05:39:36;13.70;99.90
21459;DHT22;10891;49.350;19.386;2023-05-07T05:42:03;13.60;99.90
21459;DHT22;10891;49.350;19.386;2023-05-07T05:44:33;13.50;99.90
21459;DHT22;10891;49.350;19.386;2023-05-07T05:47:00;13.50;99.90
21459;DHT22;10891;49.350;19.386;2023-05-07T05:49:30;13.60;99.90
21459;DHT22;10891;49.350;19.386;2023-05-07T05:51:58;13.70;99.90
21459;DHT22;10891;49.350;19.386;2023-05-07T05:54:26;13.80;99.90
21459;DHT22;10891;49.350;19.386;2023-05-07T05:56:54;13.80;99.90
21459;DHT22;10891;49.350;19.386;2023-05-07T05:59:22;14.00;99.90
21459;DHT22;10891;49.350;19.386;2023-05-07T06:01:49;14.10;99.90
21459;DHT22;10891;49.350;19.386;2023-05-07T06:04:19;14.80;99.90
21459;DHT22;10891;49.350;19.386;2023-05-07T06:06:49;16.30;99.90
21459;DHT22;10891;49.350;19.386;2023-05-07T06:09:16;17.30;99.90
21459;DHT22;10891;49.350;19.386;2023-05-07T06:11:45;18.80;99.90
21459;DHT22;10891;49.350;19.386;2023-05-07T06:14:13;17.70;99.90
21459;DHT22;10891;49.350;19.386;2023-05-07T06:16:40;16.50;99.90
21459;DHT22;10891;49.350;19.386;2023-05-07T06:19:07;15.70;99.90
21459;DHT22;10891;49.350;19.386;2023-05-07T06:21:38;15.50;99.90
21459;DHT22;10891;49.350;19.386;2023-05-07T06:24:06;15.00;99.90
21459;DHT22;10891;49.350;19.386;2023-05-07T06:26:43;14.30;99.90
21459;DHT22;10891;49.350;19.386;2023-05-07T06:29:11;13.90;99.90
21459;DHT22;10891;49.350;19.386;2023-05-07T06:31:38;14.10;99.90
21459;DHT22;10891;49.350;19.386;2023-05-07T06:34:05;14.30;99.90
21459;DHT22;10891;49.350;19.386;2023-05-07T06:36:32;14.90;99.90
21459;DHT22;10891;49.350;19.386;2023-05-07T06:39:05;14.80;99.90
21459;DHT22;10891;49.350;19.386;2023-05-07T06:41:32;15.20;99.90
21459;DHT22;10891;49.350;19.386;2023-05-07T06:44:00;14.80;99.90
21459;DHT22;10891;49.350;19.386;2023-05-07T06:46:29;14.70;99.90
21459;DHT22;10891;49.350;19.386;2023-05-07T06:48:56;14.90;99.90
21459;DHT22;10891;49.350;19.386;2023-05-07T06:51:23;14.60;99.90
21459;DHT22;10891;49.350;19.386;2023-05-07T06:53:50;14.10;99.90
21459;DHT22;10891;49.350;19.386;2023-05-07T06:56:17;14.10;99.90
21459;DHT22;10891;49.350;19.386;2023-05-07T06:58:44;14.00;99.90
21459;DHT22;10891;49.350;19.386;2023-05-07T07:01:11;13.60;99.90
21459;DHT22;10891;49.350;19.386;2023-05-07T07:03:39;13.90;99.90
21459;DHT22;10891;49.350;19.386;2023-05-07T07:06:06;14.00;99.90
21459;DHT22;10891;49.350;19.386;2023-05-07T07:08:34;14.60;99.90
21459;DHT22;10891;49.350;19.386;2023-05-07T07:11:01;15.00;99.90
21459;DHT22;10891;49.350;19.386;2023-05-07T07:13:29;15.00;99.90
21459;DHT22;10891;49.350;19.386;2023-05-07T07:15:56;15.20;99.90
21459;DHT22;10891;49.350;19.386;2023-05-07T07:18:23;15.80;99.90
21459;DHT22;10891;49.350;19.386;2023-05-07T07:20:52;16.30;99.90
21459;DHT22;10891;49.350;19.386;2023-05-07T07:23:19;16.50;99.90
21459;DHT22;10891;49.350;19.386;2023-05-07T07:25:47;16.90;99.90
21459;DHT22;10891;49.350;19.386;2023-05-07T07:28:15;17.00;99.90
21459;DHT22;10891;49.350;19.386;2023-05-07T07:30:42;16.50;99.90
21459;DHT22;10891;49.350;19.386;2023-05-07T07:33:09;15.80;99.90
21459;DHT22;10891;49.350;19.386;2023-05-07T07:35:36;15.40;99.90
21459;DHT22;10891;49.350;19.386;2023-05-07T07:38:05;15.10;99.90
21459;DHT22;10891;49.350;19.386;2023-05-07T07:40:34;15.10;99.90
21459;DHT22;10891;49.350;19.386;2023-05-07T07:43:01;14.90;99.90
21459;DHT22;10891;49.350;19.386;2023-05-07T07:45:29;15.30;99.90
21459;DHT22;10891;49.350;19.386;2023-05-07T07:47:59;15.60;99.90
21459;DHT22;10891;49.350;19.386;2023-05-07T07:50:26;15.50;99.90
21459;DHT22;10891;49.350;19.386;2023-05-07T07:52:53;15.60;99.90
21459;DHT22;10891;49.350;19.386;2023-05-07T07:55:23;15.70;99.90
21459;DHT22;10891;49.350;19.386;2023-05-07T07:57:50;15.50;99.90
21459;DHT22;10891;49.350;19.386;2023-05-07T08:00:18;15.40;99.90
21459;DHT22;10891;49.350;19.386;2023-05-07T08:02:45;15.20;99.90
21459;DHT22;10891;49.350;19.386;2023-05-07T08:05:12;14.70;99.90
21459;DHT22;10891;49.350;19.386;2023-05-07T08:07:40;14.30;99.90
21459;DHT22;10891;49.350;19.386;2023-05-07T08:10:08;14.60;99.90
21459;DHT22;10891;49.350;19.386;2023-05-07T08:12:37;14.70;99.90
21459;DHT22;10891;49.350;19.386;2023-05-07T08:15:05;14.80;99.90
21459;DHT22;10891;49.350;19.386;2023-05-07T08:17:33;15.30;99.90
21459;DHT22;10891;49.350;19.386;2023-05-07T08:20:00;15.80;99.90
21459;DHT22;10891;49.350;19.386;2023-05-07T08:22:27;16.40;99.90
21459;DHT22;10891;49.350;19.386;2023-05-07T08:24:54;16.30;99.90
21459;DHT22;10891;49.350;19.386;2023-05-07T08:27:21;16.00;99.90
21459;DHT22;10891;49.350;19.386;2023-05-07T08:29:50;16.30;99.90
21459;DHT22;10891;49.350;19.386;2023-05-07T08:32:17;17.20;99.90
21459;DHT22;10891;49.350;19.386;2023-05-07T08:34:44;17.70;99.90
21459;DHT22;10891;49.350;19.386;2023-05-07T08:37:12;18.10;99.90
21459;DHT22;10891;49.350;19.386;2023-05-07T08:39:40;18.20;99.90
21459;DHT22;10891;49.350;19.386;2023-05-07T08:42:10;18.70;99.90
21459;DHT22;10891;49.350;19.386;2023-05-07T08:44:38;18.50;99.90
21459;DHT22;10891;49.350;19.386;2023-05-07T08:47:08;18.30;99.90
21459;DHT22;10891;49.350;19.386;2023-05-07T08:49:36;18.20;99.90
21459;DHT22;10891;49.350;19.386;2023-05-07T08:52:03;17.00;99.90
21459;DHT22;10891;49.350;19.386;2023-05-07T08:54:31;16.10;99.90
21459;DHT22;10891;49.350;19.386;2023-05-07T08:56:58;16.20;99.90
21459;DHT22;10891;49.350;19.386;2023-05-07T08:59:25;16.80;99.90
21459;DHT22;10891;49.350;19.386;2023-05-07T09:01:52;16.70;99.90
21459;DHT22;10891;49.350;19.386;2023-05-07T09:04:20;16.60;99.90
21459;DHT22;10891;49.350;19.386;2023-05-07T09:06:48;16.60;99.90
21459;DHT22;10891;49.350;19.386;2023-05-07T09:09:17;16.50;99.90
21459;DHT22;10891;49.350;19.386;2023-05-07T09:11:45;16.60;99.90
21459;DHT22;10891;49.350;19.386;2023-05-07T09:14:13;16.40;99.90
21459;DHT22;10891;49.350;19.386;2023-05-07T09:16:40;16.30;99.90
21459;DHT22;10891;49.350;19.386;2023-05-07T09:19:07;16.30;99.90
21459;DHT22;10891;49.350;19.386;2023-05-07T09:21:36;16.30;99.90
21459;DHT22;10891;49.350;19.386;2023-05-07T09:24:03;16.90;99.90
21459;DHT22;10891;49.350;19.386;2023-05-07T09:26:31;16.80;99.90
21459;DHT22;10891;49.350;19.386;2023-05-07T09:28:59;16.00;99.90
21459;DHT22;10891;49.350;19.386;2023-05-07T09:31:27;15.30;99.90
21459;DHT22;10891;49.350;19.386;2023-05-07T09:33:54;15.10;99.90
21459;DHT22;10891;49.350;19.386;2023-05-07T09:36:22;14.50;99.90
21459;DHT22;10891;49.350;19.386;2023-05-07T09:38:51;14.70;99.90
21459;DHT22;10891;49.350;19.386;2023-05-07T09:41:19;14.40;99.90
21459;DHT22;10891;49.350;19.386;2023-05-07T09:43:46;14.50;99.90
21459;DHT22;10891;49.350;19.386;2023-05-07T09:46:25;14.50;99.90
21459;DHT22;10891;49.350;19.386;2023-05-07T09:48:57;14.60;99.90
21459;DHT22;10891;49.350;19.386;2023-05-07T09:51:29;14.80;99.90
21459;DHT22;10891;49.350;19.386;2023-05-07T09:53:58;14.70;99.90
21459;DHT22;10891;49.350;19.386;2023-05-07T09:56:26;14.80;99.90
21459;DHT22;10891;49.350;19.386;2023-05-07T09:58:54;14.50;99.90
21459;DHT22;10891;49.350;19.386;2023-05-07T10:01:23;14.60;99.90
21459;DHT22;10891;49.350;19.386;2023-05-07T10:03:51;14.90;99.90
21459;DHT22;10891;49.350;19.386;2023-05-07T10:06:19;14.40;99.90
21459;DHT22;10891;49.350;19.386;2023-05-07T10:08:47;14.40;99.90
21459;DHT22;10891;49.350;19.386;2023-05-07T10:11:16;14.40;99.90
21459;DHT22;10891;49.350;19.386;2023-05-07T10:13:44;14.90;99.90
21459;DHT22;10891;49.350;19.386;2023-05-07T10:16:13;14.80;99.90
21459;DHT22;10891;49.350;19.386;2023-05-07T10:18:41;14.80;99.90
21459;DHT22;10891;49.350;19.386;2023-05-07T10:21:11;14.40;99.90
21459;DHT22;10891;49.350;19.386;2023-05-07T10:23:38;14.30;99.90
21459;DHT22;10891;49.350;19.386;2023-05-07T10:26:07;14.20;99.90
21459;DHT22;10891;49.350;19.386;2023-05-07T10:28:38;14.40;99.90
21459;DHT22;10891;49.350;19.386;2023-05-07T10:31:18;14.80;99.90
21459;DHT22;10891;49.350;19.386;2023-05-07T10:33:55;15.20;99.90
21459;DHT22;10891;49.350;19.386;2023-05-07T10:36:24;15.40;99.90
21459;DHT22;10891;49.350;19.386;2023-05-07T10:38:52;16.20;99.90
21459;DHT22;10891;49.350;19.386;2023-05-07T10:41:19;15.70;99.90
21459;DHT22;10891;49.350;19.386;2023-05-07T10:43:49;15.10;99.90
21459;DHT22;10891;49.350;19.386;2023-05-07T10:46:17;14.60;99.90
21459;DHT22;10891;49.350;19.386;2023-05-07T10:49:07;14.20;99.90
21459;DHT22;10891;49.350;19.386;2023-05-07T10:51:34;14.10;99.90
21459;DHT22;10891;49.350;19.386;2023-05-07T10:54:26;13.70;99.90
21459;DHT22;10891;49.350;19.386;2023-05-07T10:56:53;13.50;99.90
21459;DHT22;10891;49.350;19.386;2023-05-07T10:59:32;13.80;99.90
21459;DHT22;10891;49.350;19.386;2023-05-07T11:02:01;13.70;99.90
21459;DHT22;10891;49.350;19.386;2023-05-07T11:04:30;13.60;99.90
21459;DHT22;10891;49.350;19.386;2023-05-07T11:07:27;13.70;99.90
21459;DHT22;10891;49.350;19.386;2023-05-07T11:09:59;13.80;99.90
21459;DHT22;10891;49.350;19.386;2023-05-07T11:12:49;13.20;99.90
21459;DHT22;10891;49.350;19.386;2023-05-07T11:15:35;12.70;99.90
21459;DHT22;10891;49.350;19.386;2023-05-07T11:18:03;12.00;99.90
21459;DHT22;10891;49.350;19.386;2023-05-07T11:20:51;11.70;99.90
21459;DHT22;10891;49.350;19.386;2023-05-07T11:23:56;11.40;99.90
21459;DHT22;10891;49.350;19.386;2023-05-07T11:26:27;11.60;99.90
21459;DHT22;10891;49.350;19.386;2023-05-07T11:28:55;11.60;99.90
21459;DHT22;10891;49.350;19.386;2023-05-07T11:31:25;11.40;99.90
21459;DHT22;10891;49.350;19.386;2023-05-07T11:33:54;11.30;99.90
21459;DHT22;10891;49.350;19.386;2023-05-07T11:36:23;11.20;99.90
21459;DHT22;10891;49.350;19.386;2023-05-07T11:38:50;11.20;99.90
21459;DHT22;10891;49.350;19.386;2023-05-07T11:41:17;10.90;99.90
21459;DHT22;10891;49.350;19.386;2023-05-07T11:43:54;10.90;99.90
21459;DHT22;10891;49.350;19.386;2023-05-07T11:46:23;10.80;99.90
21459;DHT22;10891;49.350;19.386;2023-05-07T11:48:50;10.60;99.90
21459;DHT22;10891;49.350;19.386;2023-05-07T11:51:22;10.60;99.90
21459;DHT22;10891;49.350;19.386;2023-05-07T11:53:50;10.60;99.90
21459;DHT22;10891;49.350;19.386;2023-05-07T11:56:18;10.70;99.90
21459;DHT22;10891;49.350;19.386;2023-05-07T11:58:46;10.50;99.90
21459;DHT22;10891;49.350;19.386;2023-05-07T12:01:14;10.50;99.90
21459;DHT22;10891;49.350;19.386;2023-05-07T12:03:44;10.80;99.90
21459;DHT22;10891;49.350;19.386;2023-05-07T12:06:14;10.70;99.90
21459;DHT22;10891;49.350;19.386;2023-05-07T12:08:42;10.60;99.90
21459;DHT22;10891;49.350;19.386;2023-05-07T12:11:12;10.60;99.90
21459;DHT22;10891;49.350;19.386;2023-05-07T12:13:40;10.90;99.90
21459;DHT22;10891;49.350;19.386;2023-05-07T12:16:07;10.80;99.90
21459;DHT22;10891;49.350;19.386;2023-05-07T12:18:36;10.80;99.90
21459;DHT22;10891;49.350;19.386;2023-05-07T12:21:06;10.80;99.90
21459;DHT22;10891;49.350;19.386;2023-05-07T12:23:34;10.80;99.90
21459;DHT22;10891;49.350;19.386;2023-05-07T12:26:02;10.70;99.90
21459;DHT22;10891;49.350;19.386;2023-05-07T12:28:29;10.70;99.90
21459;DHT22;10891;49.350;19.386;2023-05-07T12:30:57;11.10;99.90
21459;DHT22;10891;49.350;19.386;2023-05-07T12:33:25;11.40;99.90
21459;DHT22;10891;49.350;19.386;2023-05-07T12:35:54;11.50;99.90
21459;DHT22;10891;49.350;19.386;2023-05-07T12:38:23;11.60;99.90
21459;DHT22;10891;49.350;19.386;2023-05-07T12:40:53;11.90;99.90
21459;DHT22;10891;49.350;19.386;2023-05-07T12:43:21;11.90;99.90
21459;DHT22;10891;49.350;19.386;2023-05-07T12:45:51;12.20;99.90
21459;DHT22;10891;49.350;19.386;2023-05-07T12:48:20;12.20;99.90
21459;DHT22;10891;49.350;19.386;2023-05-07T12:50:49;12.50;99.90
21459;DHT22;10891;49.350;19.386;2023-05-07T12:53:17;12.30;99.90
21459;DHT22;10891;49.350;19.386;2023-05-07T12:55:49;11.90;99.90
21459;DHT22;10891;49.350;19.386;2023-05-07T12:58:17;12.00;99.90
21459;DHT22;10891;49.350;19.386;2023-05-07T13:00:45;11.80;99.90
21459;DHT22;10891;49.350;19.386;2023-05-07T13:03:21;11.90;99.90
21459;DHT22;10891;49.350;19.386;2023-05-07T13:05:48;12.00;99.90
21459;DHT22;10891;49.350;19.386;2023-05-07T13:08:26;12.30;99.90
21459;DHT22;10891;49.350;19.386;2023-05-07T13:10:55;12.20;99.90
21459;DHT22;10891;49.350;19.386;2023-05-07T13:13:22;12.20;99.90
21459;DHT22;10891;49.350;19.386;2023-05-07T13:15:49;11.80;99.90
21459;DHT22;10891;49.350;19.386;2023-05-07T13:18:16;12.00;99.90
21459;DHT22;10891;49.350;19.386;2023-05-07T13:20:43;12.10;99.90
21459;DHT22;10891;49.350;19.386;2023-05-07T13:23:10;12.50;99.90
21459;DHT22;10891;49.350;19.386;2023-05-07T13:25:37;12.10;99.90
21459;DHT22;10891;49.350;19.386;2023-05-07T13:28:05;11.60;99.90
21459;DHT22;10891;49.350;19.386;2023-05-07T13:30:32;11.70;99.90
21459;DHT22;10891;49.350;19.386;2023-05-07T13:33:00;11.60;99.90
21459;DHT22;10891;49.350;19.386;2023-05-07T13:35:27;11.50;99.90
21459;DHT22;10891;49.350;19.386;2023-05-07T13:37:54;11.30;99.90
21459;DHT22;10891;49.350;19.386;2023-05-07T13:40:21;11.10;99.90
21459;DHT22;10891;49.350;19.386;2023-05-07T13:42:48;10.40;99.90
21459;DHT22;10891;49.350;19.386;2023-05-07T13:45:17;10.20;99.90
21459;DHT22;10891;49.350;19.386;2023-05-07T13:47:45;10.30;99.90
21459;DHT22;10891;49.350;19.386;2023-05-07T13:50:12;10.20;99.90
21459;DHT22;10891;49.350;19.386;2023-05-07T13:52:41;10.10;99.90
21459;DHT22;10891;49.350;19.386;2023-05-07T13:55:11;9.70;99.90
21459;DHT22;10891;49.350;19.386;2023-05-07T13:57:38;9.70;99.90
21459;DHT22;10891;49.350;19.386;2023-05-07T14:00:08;9.60;99.90
21459;DHT22;10891;49.350;19.386;2023-05-07T14:02:37;9.50;99.90
21459;DHT22;10891;49.350;19.386;2023-05-07T14:05:04;9.50;99.90
21459;DHT22;10891;49.350;19.386;2023-05-07T14:07:31;9.50;99.90
21459;DHT22;10891;49.350;19.386;2023-05-07T14:09:58;9.20;99.90
21459;DHT22;10891;49.350;19.386;2023-05-07T14:12:25;9.10;99.90
21459;DHT22;10891;49.350;19.386;2023-05-07T14:14:52;8.90;99.90
21459;DHT22;10891;49.350;19.386;2023-05-07T14:17:19;8.90;99.90
21459;DHT22;10891;49.350;19.386;2023-05-07T14:19:50;8.60;99.90
21459;DHT22;10891;49.350;19.386;2023-05-07T14:22:16;8.60;99.90
21459;DHT22;10891;49.350;19.386;2023-05-07T14:24:43;8.80;99.90
21459;DHT22;10891;49.350;19.386;2023-05-07T14:27:10;8.60;99.90
21459;DHT22;10891;49.350;19.386;2023-05-07T14:29:37;8.50;99.90
21459;DHT22;10891;49.350;19.386;2023-05-07T14:32:04;8.60;99.90
21459;DHT22;10891;49.350;19.386;2023-05-07T14:34:31;8.60;99.90
21459;DHT22;10891;49.350;19.386;2023-05-07T14:37:00;8.20;99.90
21459;DHT22;10891;49.350;19.386;2023-05-07T14:39:28;8.10;99.90
21459;DHT22;10891;49.350;19.386;2023-05-07T14:41:55;7.90;99.90
21459;DHT22;10891;49.350;19.386;2023-05-07T14:44:22;7.70;99.90
21459;DHT22;10891;49.350;19.386;2023-05-07T14:46:48;7.50;99.90
21459;DHT22;10891;49.350;19.386;2023-05-07T14:49:16;7.30;99.90
21459;DHT22;10891;49.350;19.386;2023-05-07T14:51:43;7.10;99.90
21459;DHT22;10891;49.350;19.386;2023-05-07T14:54:12;7.10;99.90
21459;DHT22;10891;49.350;19.386;2023-05-07T14:56:40;6.80;99.90
21459;DHT22;10891;49.350;19.386;2023-05-07T14:59:07;6.70;99.90
21459;DHT22;10891;49.350;19.386;2023-05-07T15:01:35;6.80;99.90
21459;DHT22;10891;49.350;19.386;2023-05-07T15:04:03;7.00;99.90
21459;DHT22;10891;49.350;19.386;2023-05-07T15:06:30;6.90;99.90
21459;DHT22;10891;49.350;19.386;2023-05-07T15:08:57;6.70;99.90
21459;DHT22;10891;49.350;19.386;2023-05-07T15:11:25;6.50;99.90
21459;DHT22;10891;49.350;19.386;2023-05-07T15:13:52;6.50;99.90
21459;DHT22;10891;49.350;19.386;2023-05-07T15:16:19;6.70;99.90
21459;DHT22;10891;49.350;19.386;2023-05-07T15:18:49;6.60;99.90
21459;DHT22;10891;49.350;19.386;2023-05-07T15:21:16;6.70;99.90
21459;DHT22;10891;49.350;19.386;2023-05-07T15:23:43;6.80;99.90
21459;DHT22;10891;49.350;19.386;2023-05-07T15:26:11;6.70;99.90